Spittal an der Drau, Austria
Current Conditions -  °F | °C
As of 1:20 PM on Friday 24 Oct 2014 (Local Time) from LOWK Reporting Station
Scattered Clouds Scattered Clouds  
Wind Chill: 61°   Ceiling: Unl
Heat Index: 61°   Visibility: 6mi
Dew Point: 36°   Wind: 5mph
Humidity: 39%   Direction: NA
Pressure: 30"   Gusts: 16mph
Location:  46.8°N, 13.5°E
Report Text: LOWK 241120Z VRB04G14KT 9999 FEW060 SCT100 16/02 Q1016 NOSIG
Loading
Personal Weather Stations






























Interactive Weather Map
Tropical Storm Tracking
New forecast layout! Learn more

10-Day Weather Forecast

Advertisements
Track Severe Weather on mobile